Time;durP1;ratioP1;P1;durP2;ratioP2;P2;SDS_P1;SDS_P2;PMS_P1;PMS_P2;Temp;Humidity;BMP_temperature;BMP_pressure;BME280_temperature;BME280_humidity;BME280_pressure;Samples;Min_cycle;Max_cycle;Signal;HPM_P1;HPM_P2
2022/08/16 00:01:19;;;;;;;14.77;12.52;;;;;;;;;;6307297;22;20437;-72
2022/08/16 00:03:50;;;;;;;16.42;14.43;;;;;;;;;;6306709;22;20477;-73
2022/08/16 00:06:17;;;;;;;16.63;13.48;;;;;;;;;;6307566;22;20090;-71
2022/08/16 00:08:45;;;;;;;18.13;14.30;;;;;;;;;;6307393;22;20038;-72
2022/08/16 00:11:14;;;;;;;18.20;14.30;;;;;;;;;;6307183;22;20088;-72
2022/08/16 00:13:46;;;;;;;16.05;14.30;;;;;;;;;;6307312;22;20464;-72
2022/08/16 00:16:25;;;;;;;19.73;14.90;;;;;;;;;;6307488;22;20072;-72
2022/08/16 00:19:14;;;;;;;18.30;15.25;;;;;;;;;;6307515;22;20015;-72
2022/08/16 00:21:43;;;;;;;17.77;14.15;;;;;;;;;;6307699;22;20042;-72
2022/08/16 00:24:11;;;;;;;17.23;13.85;;;;;;;;;;6307402;22;20387;-72
2022/08/16 00:26:42;;;;;;;15.68;13.55;;;;;;;;;;6307478;22;20011;-72
2022/08/16 00:29:14;;;;;;;16.10;13.05;;;;;;;;;;6279617;22;20023;-72
2022/08/16 00:31:43;;;;;;;16.88;13.65;;;;;;;;;;6307506;22;20016;-72
2022/08/16 00:34:28;;;;;;;17.98;13.48;;;;;;;;;;6280083;22;20023;-72
2022/08/16 00:37:12;;;;;;;18.52;13.35;;;;;;;;;;6307721;22;20016;-72
2022/08/16 00:39:45;;;;;;;18.42;12.88;;;;;;;;;;6307295;22;20011;-72
2022/08/16 00:42:14;;;;;;;16.83;13.57;;;;;;;;;;6280177;22;20050;-72
2022/08/16 00:44:59;;;;;;;16.52;13.82;;;;;;;;;;6307217;22;20026;-72
2022/08/16 00:47:27;;;;;;;14.07;12.55;;;;;;;;;;6307316;22;20011;-72
2022/08/16 00:49:56;;;;;;;18.30;13.75;;;;;;;;;;6280028;22;20027;-72
2022/08/16 00:52:24;;;;;;;14.00;12.55;;;;;;;;;;6280213;22;20384;-72
2022/08/16 00:54:58;;;;;;;16.58;12.82;;;;;;;;;;6280269;22;20030;-72
2022/08/16 00:57:26;;;;;;;13.65;12.13;;;;;;;;;;6279564;22;20019;-72
2022/08/16 01:00:15;;;;;;;15.95;13.05;;;;;;;;;;6307356;22;20015;-72
2022/08/16 01:02:50;;;;;;;13.80;11.95;;;;;;;;;;6279774;22;20064;-72
2022/08/16 01:05:19;;;;;;;14.95;13.10;;;;;;;;;;6307333;22;20026;-72
2022/08/16 01:07:52;;;;;;;14.60;12.75;;;;;;;;;;6279953;22;20026;-72
2022/08/16 01:10:21;;;;;;;13.88;12.30;;;;;;;;;;6279144;22;20019;-72
2022/08/16 01:12:59;;;;;;;16.55;12.48;;;;;;;;;;6306638;22;20015;-72
2022/08/16 01:15:27;;;;;;;16.85;13.25;;;;;;;;;;6306435;22;20019;-72
2022/08/16 01:17:57;;;;;;;14.38;12.45;;;;;;;;;;6279809;22;20077;-72
2022/08/16 01:20:26;;;;;;;16.85;12.63;;;;;;;;;;6279763;22;20019;-72
2022/08/16 01:23:10;;;;;;;15.77;13.73;;;;;;;;;;6279501;22;20072;-72
2022/08/16 01:25:42;;;;;;;16.23;12.95;;;;;;;;;;6279577;22;20035;-72
2022/08/16 01:28:13;;;;;;;14.38;11.98;;;;;;;;;;6279093;22;20015;-72
2022/08/16 01:30:50;;;;;;;17.38;12.73;;;;;;;;;;6306800;22;20016;-72
2022/08/16 01:33:18;;;;;;;14.25;12.23;;;;;;;;;;6279461;22;20377;-72
2022/08/16 01:35:55;;;;;;;16.27;12.63;;;;;;;;;;6279401;22;20031;-72
2022/08/16 01:38:30;;;;;;;16.80;12.77;;;;;;;;;;6279332;22;20030;-72
2022/08/16 01:41:04;;;;;;;23.42;18.13;;;;;;;;;;6279525;22;20030;-72
2022/08/16 01:43:34;;;;;;;18.90;14.77;;;;;;;;;;6279544;22;20038;-72
2022/08/16 01:46:04;;;;;;;41.35;32.67;;;;;;;;;;6279269;22;20053;-72
2022/08/16 01:48:54;;;;;;;17.38;12.77;;;;;;;;;;6279208;22;20445;-72
2022/08/16 01:51:24;;;;;;;19.08;14.80;;;;;;;;;;6306830;22;20019;-72
2022/08/16 01:53:52;;;;;;;19.33;15.10;;;;;;;;;;6279154;22;20460;-72
2022/08/16 01:56:30;;;;;;;14.38;12.75;;;;;;;;;;6279632;22;20341;-72
2022/08/16 01:58:59;;;;;;;17.38;13.43;;;;;;;;;;6279134;22;20501;-72
2022/08/16 02:01:28;;;;;;;14.95;13.15;;;;;;;;;;6307108;22;20318;-72
2022/08/16 02:03:58;;;;;;;25.85;20.02;;;;;;;;;;6279519;22;20019;-72
2022/08/16 02:06:40;;;;;;;19.33;14.55;;;;;;;;;;6306788;22;20018;-72
2022/08/16 02:09:18;;;;;;;16.60;13.60;;;;;;;;;;6279180;22;20019;-72
2022/08/16 02:11:53;;;;;;;18.08;14.40;;;;;;;;;;6279157;22;20384;-72
2022/08/16 02:14:26;;;;;;;19.17;12.60;;;;;;;;;;6279370;22;20020;-71
2022/08/16 02:16:58;;;;;;;17.95;13.65;;;;;;;;;;6279547;22;20050;-72
2022/08/16 02:19:27;;;;;;;17.98;13.40;;;;;;;;;;6279498;22;20019;-72
2022/08/16 02:22:18;;;;;;;17.38;15.35;;;;;;;;;;6259636;22;20022;-72
2022/08/16 02:25:04;;;;;;;17.02;13.63;;;;;;;;;;6281239;22;20023;-72
2022/08/16 02:27:34;;;;;;;19.45;14.02;;;;;;;;;;6281563;22;20019;-72
2022/08/16 02:30:05;;;;;;;18.13;15.07;;;;;;;;;;6281075;22;20471;-72
2022/08/16 02:32:33;;;;;;;17.05;13.18;;;;;;;;;;6280678;22;20019;-72
2022/08/16 02:35:21;;;;;;;17.70;14.02;;;;;;;;;;6280781;22;20027;-72
2022/08/16 02:37:51;;;;;;;20.48;15.05;;;;;;;;;;6281092;22;20016;-72
2022/08/16 02:40:25;;;;;;;16.98;14.50;;;;;;;;;;6280960;22;20081;-72
2022/08/16 02:42:53;;;;;;;17.60;13.80;;;;;;;;;;6308406;22;20011;-72
2022/08/16 02:45:23;;;;;;;16.98;13.85;;;;;;;;;;6281084;22;20023;-72
2022/08/16 02:47:55;;;;;;;18.83;14.13;;;;;;;;;;6281085;22;20058;-72
2022/08/16 02:50:28;;;;;;;19.60;15.68;;;;;;;;;;6281162;22;20102;-72
2022/08/16 02:53:16;;;;;;;21.38;15.48;;;;;;;;;;6281114;22;20069;-72
2022/08/16 02:55:50;;;;;;;17.42;14.40;;;;;;;;;;6281069;22;20026;-72
2022/08/16 02:58:22;;;;;;;16.75;13.68;;;;;;;;;;6280765;22;20019;-72
2022/08/16 03:00:52;;;;;;;17.70;14.48;;;;;;;;;;6280932;22;20027;-72
2022/08/16 03:03:25;;;;;;;18.38;15.35;;;;;;;;;;6281299;22;20027;-72
2022/08/16 03:06:17;;;;;;;18.98;15.60;;;;;;;;;;6281442;22;20459;-72
2022/08/16 03:09:12;;;;;;;17.30;14.13;;;;;;;;;;6280987;22;20020;-72
2022/08/16 03:11:46;;;;;;;17.77;13.50;;;;;;;;;;6281027;22;20051;-72
2022/08/16 03:14:17;;;;;;;20.70;14.23;;;;;;;;;;6281144;22;20252;-72
2022/08/16 03:16:52;;;;;;;19.33;16.38;;;;;;;;;;6275965;22;20016;-72
2022/08/16 03:19:33;;;;;;;18.75;14.95;;;;;;;;;;6275702;22;20022;-72
2022/08/16 03:22:22;;;;;;;17.48;14.48;;;;;;;;;;6276743;22;20016;-72
2022/08/16 03:25:03;;;;;;;17.88;14.63;;;;;;;;;;6275251;22;20019;-72
2022/08/16 03:27:35;;;;;;;16.73;14.02;;;;;;;;;;6275600;22;20043;-72
2022/08/16 03:30:07;;;;;;;18.85;14.00;;;;;;;;;;6250831;22;20023;-72
2022/08/16 03:32:48;;;;;;;18.40;14.43;;;;;;;;;;6274682;22;20349;-72
2022/08/16 03:35:20;;;;;;;17.55;14.77;;;;;;;;;;6274942;22;20024;-72
2022/08/16 03:37:52;;;;;;;17.50;13.60;;;;;;;;;;6276860;22;20123;-72
2022/08/16 03:40:40;;;;;;;28.23;22.10;;;;;;;;;;6275336;22;20026;-72
2022/08/16 03:43:10;;;;;;;19.17;15.20;;;;;;;;;;6275562;22;20342;-72
2022/08/16 03:45:50;;;;;;;18.63;13.95;;;;;;;;;;6275090;22;20453;-72
2022/08/16 03:48:22;;;;;;;22.77;16.80;;;;;;;;;;6275015;22;20023;-72
2022/08/16 03:51:15;;;;;;;19.00;14.38;;;;;;;;;;6275242;22;20019;-72
2022/08/16 03:53:57;;;;;;;22.15;14.90;;;;;;;;;;6275056;22;20022;-73
2022/08/16 03:56:30;;;;;;;18.88;15.02;;;;;;;;;;6275404;22;20015;-72
2022/08/16 03:59:01;;;;;;;22.05;14.90;;;;;;;;;;6275238;22;20154;-72
2022/08/16 04:01:35;;;;;;;18.13;14.05;;;;;;;;;;6274172;22;20445;-72
2022/08/16 04:04:03;;;;;;;16.10;13.88;;;;;;;;;;6276607;22;20513;-72
2022/08/16 04:06:31;;;;;;;16.08;14.05;;;;;;;;;;6276975;22;20065;-72
2022/08/16 04:09:00;;;;;;;21.98;16.60;;;;;;;;;;6275333;22;20043;-72
2022/08/16 04:11:28;;;;;;;17.95;13.88;;;;;;;;;;6275100;22;20047;-72
2022/08/16 04:14:04;;;;;;;17.45;13.25;;;;;;;;;;6274251;22;20011;-72
2022/08/16 04:16:54;;;;;;;23.50;17.85;;;;;;;;;;6275233;22;20061;-72
2022/08/16 04:19:43;;;;;;;16.50;13.32;;;;;;;;;;6275351;22;20415;-72
2022/08/16 04:22:15;;;;;;;19.35;14.43;;;;;;;;;;6273698;22;20099;-72
2022/08/16 04:24:50;;;;;;;21.42;16.45;;;;;;;;;;6274403;22;20024;-72
2022/08/16 04:27:27;;;;;;;33.40;24.90;;;;;;;;;;6275216;22;20326;-72
2022/08/16 04:29:59;;;;;;;18.58;13.55;;;;;;;;;;6249689;22;20016;-72
2022/08/16 04:32:34;;;;;;;33.00;22.00;;;;;;;;;;6274893;22;20022;-72
2022/08/16 04:35:06;;;;;;;16.38;13.18;;;;;;;;;;6275177;22;20024;-72
2022/08/16 04:37:46;;;;;;;20.10;14.88;;;;;;;;;;6274885;22;20034;-72
2022/08/16 04:40:26;;;;;;;16.65;12.88;;;;;;;;;;6275053;22;20414;-73
2022/08/16 04:42:56;;;;;;;35.20;29.23;;;;;;;;;;6274456;22;20023;-74
2022/08/16 04:45:26;;;;;;;18.83;15.10;;;;;;;;;;6274316;22;20024;-74
2022/08/16 04:48:09;;;;;;;19.90;14.40;;;;;;;;;;6275062;22;20016;-74
2022/08/16 04:50:52;;;;;;;19.58;15.77;;;;;;;;;;6275057;22;20019;-74
2022/08/16 04:53:27;;;;;;;16.15;13.27;;;;;;;;;;6275116;22;20019;-74
2022/08/16 04:55:55;;;;;;;16.67;13.32;;;;;;;;;;6275097;22;20028;-74
2022/08/16 04:58:25;;;;;;;16.75;14.10;;;;;;;;;;6274857;22;20674;-73
2022/08/16 05:01:12;;;;;;;20.92;16.15;;;;;;;;;;6274592;22;20025;-74
2022/08/16 05:03:42;;;;;;;17.73;15.23;;;;;;;;;;6276477;22;20315;-74
2022/08/16 05:06:34;;;;;;;20.17;15.95;;;;;;;;;;6274942;22;20043;-73
2022/08/16 05:09:20;;;;;;;23.02;17.00;;;;;;;;;;6274936;22;20020;-74
2022/08/16 05:11:54;;;;;;;20.38;15.80;;;;;;;;;;6274095;22;20069;-74
2022/08/16 05:14:26;;;;;;;32.53;24.13;;;;;;;;;;6275681;22;20318;-74
2022/08/16 05:17:18;;;;;;;21.15;17.05;;;;;;;;;;6279392;22;20344;-74
2022/08/16 05:19:55;;;;;;;24.40;18.30;;;;;;;;;;6306334;22;20359;-74
2022/08/16 05:35:25;;;;;;;58.78;52.38;;;;;;;;;;5112521;27;20385;-83
2022/08/16 05:38:26;;;;;;;18.33;15.38;;;;;;;;;;5110878;28;20056;-83
2022/08/16 05:41:07;;;;;;;33.47;29.30;;;;;;;;;;5111295;28;20064;-83
2022/08/16 05:43:40;;;;;;;35.58;29.20;;;;;;;;;;5109106;28;20054;-83
2022/08/16 05:46:18;;;;;;;24.30;20.80;;;;;;;;;;5110840;28;20043;-82
2022/08/16 05:49:14;;;;;;;20.95;18.75;;;;;;;;;;5112434;28;20047;-83
2022/08/16 05:51:49;;;;;;;20.95;18.25;;;;;;;;;;5112819;28;20509;-83
2022/08/16 05:54:18;;;;;;;15.85;13.80;;;;;;;;;;5112251;28;20522;-83
2022/08/16 05:56:55;;;;;;;20.63;16.35;;;;;;;;;;5097318;28;20050;-82
2022/08/16 05:59:24;;;;;;;18.73;16.40;;;;;;;;;;5111770;28;20070;-83
2022/08/16 06:01:55;;;;;;;16.83;14.32;;;;;;;;;;5113403;28;20042;-82
2022/08/16 06:04:29;;;;;;;21.95;17.27;;;;;;;;;;5112448;28;20047;-83
2022/08/16 06:07:08;;;;;;;24.20;20.05;;;;;;;;;;5110434;28;20064;-83
2022/08/16 06:09:58;;;;;;;17.63;15.32;;;;;;;;;;5109622;28;20047;-84
2022/08/16 06:12:29;;;;;;;15.60;12.25;;;;;;;;;;5109644;28;20427;-84
2022/08/16 06:15:05;;;;;;;17.00;13.57;;;;;;;;;;5111026;28;20524;-83
2022/08/16 06:17:37;;;;;;;13.45;12.07;;;;;;;;;;5112825;28;20504;-82
2022/08/16 06:20:15;;;;;;;14.82;12.98;;;;;;;;;;5118872;28;20044;-83
2022/08/16 06:22:57;;;;;;;40.60;36.22;;;;;;;;;;5108779;28;20040;-83
2022/08/16 06:25:50;;;;;;;13.77;12.38;;;;;;;;;;5109510;28;20120;-83
2022/08/16 06:28:23;;;;;;;13.15;11.75;;;;;;;;;;5109884;28;20048;-84
2022/08/16 06:31:08;;;;;;;14.23;12.18;;;;;;;;;;5108923;28;20134;-83
2022/08/16 06:33:41;;;;;;;;;;;;;;;;;;5092825;28;20143;-83
2022/08/16 06:36:12;;;;;;;11.88;10.48;;;;;;;;;;5097147;28;19920;-84
2022/08/16 06:38:43;;;;;;;14.45;10.93;;;;;;;;;;5095535;28;20055;-84
2022/08/16 06:41:40;;;;;;;39.55;34.30;;;;;;;;;;5082025;28;20416;-84
2022/08/16 06:44:18;;;;;;;11.73;10.40;;;;;;;;;;5080845;28;20040;-83
2022/08/16 06:46:54;;;;;;;13.63;10.98;;;;;;;;;;5094768;28;20059;-84
2022/08/16 06:49:22;;;;;;;11.90;9.95;;;;;;;;;;5094342;28;20497;-84
2022/08/16 06:51:50;;;;;;;12.13;10.68;;;;;;;;;;5094415;28;20048;-84
2022/08/16 06:54:24;;;;;;;14.52;11.40;;;;;;;;;;5094252;28;20213;-84
2022/08/16 06:56:52;;;;;;;12.52;10.63;;;;;;;;;;5094262;28;20386;-85
2022/08/16 06:59:22;;;;;;;12.48;11.25;;;;;;;;;;5097242;28;20044;-84
2022/08/16 07:01:58;;;;;;;14.13;11.73;;;;;;;;;;5101253;28;20109;-83
2022/08/16 07:04:27;;;;;;;12.15;10.60;;;;;;;;;;5099737;28;20070;-84
2022/08/16 07:07:02;;;;;;;12.32;9.38;;;;;;;;;;5095811;28;20070;-85
2022/08/16 07:09:30;;;;;;;10.32;9.23;;;;;;;;;;5094312;28;20047;-85
2022/08/16 07:11:59;;;;;;;10.18;9.00;;;;;;;;;;5095757;28;20036;-84
2022/08/16 07:14:33;;;;;;;11.75;8.98;;;;;;;;;;5094280;28;20044;-84
2022/08/16 07:17:04;;;;;;;10.82;9.73;;;;;;;;;;5094168;28;20044;-83
2022/08/16 07:19:39;;;;;;;12.52;9.70;;;;;;;;;;5094014;28;20098;-84
2022/08/16 07:22:34;;;;;;;10.73;9.30;;;;;;;;;;5094662;28;20080;-85
2022/08/16 07:25:15;;;;;;;10.48;8.75;;;;;;;;;;5094836;28;20046;-85
2022/08/16 07:27:45;;;;;;;14.05;8.65;;;;;;;;;;5078366;28;20047;-84
2022/08/16 07:30:22;;;;;;;13.68;11.80;;;;;;;;;;5095087;28;20076;-84
2022/08/16 07:33:17;;;;;;;10.73;9.27;;;;;;;;;;5093373;28;20516;-84
2022/08/16 07:36:05;;;;;;;10.52;9.52;;;;;;;;;;5094183;28;20039;-84
2022/08/16 07:38:36;;;;;;;10.25;9.20;;;;;;;;;;5093707;28;20083;-85
2022/08/16 07:41:05;;;;;;;10.57;9.57;;;;;;;;;;5093567;28;20520;-83
2022/08/16 07:43:40;;;;;;;11.90;9.98;;;;;;;;;;5093207;28;20040;-84
2022/08/16 07:46:12;;;;;;;13.45;10.65;;;;;;;;;;5092558;28;20048;-85
2022/08/16 07:49:05;;;;;;;12.87;10.50;;;;;;;;;;5093849;28;20040;-84
2022/08/16 07:51:40;;;;;;;16.08;14.57;;;;;;;;;;5077844;28;20404;-84
2022/08/16 07:54:10;;;;;;;13.52;12.13;;;;;;;;;;5094191;28;20039;-84
2022/08/16 07:56:51;;;;;;;13.63;11.27;;;;;;;;;;5095941;28;20044;-84
2022/08/16 07:59:20;;;;;;;11.50;10.30;;;;;;;;;;5094325;28;20149;-84
2022/08/16 08:01:50;;;;;;;12.85;10.63;;;;;;;;;;5092851;28;20475;-85
2022/08/16 08:04:20;;;;;;;14.57;13.07;;;;;;;;;;5092890;28;20051;-86
2022/08/16 08:06:50;;;;;;;20.27;18.17;;;;;;;;;;5093303;28;20089;-87
2022/08/16 08:09:18;;;;;;;12.88;11.55;;;;;;;;;;5093148;28;20044;-84
2022/08/16 08:11:48;;;;;;;12.82;11.52;;;;;;;;;;5092763;28;20064;-84
2022/08/16 08:14:32;;;;;;;18.67;14.35;;;;;;;;;;5093118;28;20067;-85
2022/08/16 08:17:00;;;;;;;10.18;8.70;;;;;;;;;;5092721;28;20138;-84
2022/08/16 08:19:31;;;;;;;12.05;9.02;;;;;;;;;;5092678;28;20047;-86
2022/08/16 08:21:59;;;;;;;13.68;12.30;;;;;;;;;;5092526;28;20044;-85
2022/08/16 08:24:47;;;;;;;15.25;12.50;;;;;;;;;;5092644;28;20052;-86
2022/08/16 08:27:16;;;;;;;11.45;10.45;;;;;;;;;;5092536;28;20071;-85
2022/08/16 08:29:52;;;;;;;11.45;9.25;;;;;;;;;;5092726;28;20074;-85
2022/08/16 08:32:42;;;;;;;10.57;9.48;;;;;;;;;;5092488;28;20042;-87
2022/08/16 08:35:35;;;;;;;11.40;10.30;;;;;;;;;;5092468;28;20135;-85
2022/08/16 08:38:07;;;;;;;12.18;9.45;;;;;;;;;;5092509;28;20135;-86
2022/08/16 08:40:38;;;;;;;14.10;12.55;;;;;;;;;;5092715;28;20408;-86
2022/08/16 08:43:11;;;;;;;10.35;9.35;;;;;;;;;;5093714;28;20036;-86
2022/08/16 08:45:51;;;;;;;13.05;11.20;;;;;;;;;;5092242;28;20055;-85
2022/08/16 08:48:22;;;;;;;14.13;12.18;;;;;;;;;;5092428;28;20047;-87
2022/08/16 08:51:09;;;;;;;12.40;10.90;;;;;;;;;;5092211;28;20044;-85
2022/08/16 08:53:49;;;;;;;11.98;9.13;;;;;;;;;;5092354;28;20075;-85
2022/08/16 08:56:32;;;;;;;11.40;8.80;;;;;;;;;;5092395;28;20052;-85
2022/08/16 08:59:20;;;;;;;11.02;9.45;;;;;;;;;;5093656;28;20073;-86
2022/08/16 09:01:53;;;;;;;12.48;9.18;;;;;;;;;;5091997;28;20493;-86
2022/08/16 09:04:30;;;;;;;10.85;9.35;;;;;;;;;;5091972;28;20126;-83
2022/08/16 09:06:59;;;;;;;11.98;10.38;;;;;;;;;;5091937;28;20047;-84
2022/08/16 09:09:31;;;;;;;10.20;9.15;;;;;;;;;;5091713;28;20144;-83
2022/08/16 09:12:02;;;;;;;9.90;8.93;;;;;;;;;;5092212;28;20047;-84
2022/08/16 09:14:50;;;;;;;10.45;9.32;;;;;;;;;;5091867;28;20134;-83
2022/08/16 09:17:24;;;;;;;10.53;9.47;;;;;;;;;;5093254;28;20051;-84
2022/08/16 09:20:13;;;;;;;10.95;9.50;;;;;;;;;;5092098;28;20040;-86
2022/08/16 09:22:44;;;;;;;10.02;9.02;;;;;;;;;;5091869;28;20089;-85
2022/08/16 09:25:22;;;;;;;9.85;8.95;;;;;;;;;;5092026;28;20552;-85
2022/08/16 09:27:53;;;;;;;10.13;9.00;;;;;;;;;;5092238;28;20489;-86
2022/08/16 09:30:30;;;;;;;11.00;9.85;;;;;;;;;;5092059;28;20044;-84
2022/08/16 09:33:10;;;;;;;9.55;8.63;;;;;;;;;;5092817;28;20040;-85
2022/08/16 09:35:38;;;;;;;10.32;8.30;;;;;;;;;;5092289;28;20097;-83
2022/08/16 09:38:12;;;;;;;9.38;8.48;;;;;;;;;;5092770;28;20040;-83
2022/08/16 09:40:59;;;;;;;10.32;9.02;;;;;;;;;;5093498;28;20044;-85
2022/08/16 09:43:27;;;;;;;11.77;9.10;;;;;;;;;;5094170;28;20036;-83
2022/08/16 09:46:16;;;;;;;9.95;8.65;;;;;;;;;;5094571;28;20043;-83
2022/08/16 09:49:03;;;;;;;11.18;8.38;;;;;;;;;;5093424;28;20400;-84
2022/08/16 09:51:35;;;;;;;9.88;8.95;;;;;;;;;;5093090;28;20065;-86
2022/08/16 09:54:04;;;;;;;9.55;8.52;;;;;;;;;;5092857;28;20101;-85
2022/08/16 09:56:33;;;;;;;8.90;8.10;;;;;;;;;;5093146;28;20040;-84
2022/08/16 09:59:02;;;;;;;9.35;8.48;;;;;;;;;;5093410;28;20040;-83
2022/08/16 10:01:35;;;;;;;9.02;8.10;;;;;;;;;;5092988;28;20051;-85
2022/08/16 10:04:03;;;;;;;9.95;7.97;;;;;;;;;;5092978;28;20055;-83
2022/08/16 10:06:52;;;;;;;9.30;8.45;;;;;;;;;;5093890;28;20434;-83
2022/08/16 10:09:20;;;;;;;8.88;7.97;;;;;;;;;;5092673;28;20044;-85
2022/08/16 10:14:44;;;;;;;9.13;8.25;;;;;;;;;;5097169;28;20129;-85
2022/08/16 10:17:15;;;;;;;18.13;12.88;;;;;;;;;;5096903;28;20119;-86
2022/08/16 10:19:45;;;;;;;8.75;7.82;;;;;;;;;;5096395;28;20418;-84
2022/08/16 10:22:17;;;;;;;10.05;8.45;;;;;;;;;;5097192;28;20493;-83
2022/08/16 10:24:49;;;;;;;8.82;7.93;;;;;;;;;;5096933;28;20390;-83
2022/08/16 10:27:26;;;;;;;9.20;8.25;;;;;;;;;;5096338;28;20066;-83
2022/08/16 10:30:13;;;;;;;9.02;8.07;;;;;;;;;;5096184;28;20032;-85
2022/08/16 10:32:55;;;;;;;9.48;8.15;;;;;;;;;;5095882;28;20093;-84
2022/08/16 10:35:23;;;;;;;8.27;7.32;;;;;;;;;;5096292;28;20127;-86
2022/08/16 10:37:59;;;;;;;11.05;9.40;;;;;;;;;;5094870;28;20440;-85
2022/08/16 10:40:27;;;;;;;10.13;9.10;;;;;;;;;;5095765;28;20036;-83
2022/08/16 10:43:00;;;;;;;8.75;7.18;;;;;;;;;;5095766;28;20119;-84
2022/08/16 10:45:29;;;;;;;7.82;7.10;;;;;;;;;;5095818;28;20048;-86
2022/08/16 10:48:05;;;;;;;7.75;6.60;;;;;;;;;;5095832;28;20040;-86
2022/08/16 10:50:56;;;;;;;8.40;6.93;;;;;;;;;;5094410;28;20105;-82
2022/08/16 10:53:26;;;;;;;7.75;7.03;;;;;;;;;;5095767;28;20055;-85
2022/08/16 10:55:59;;;;;;;9.48;7.15;;;;;;;;;;5095595;28;20052;-82
2022/08/16 10:58:27;;;;;;;6.85;6.20;;;;;;;;;;5095784;28;20032;-84
2022/08/16 11:01:02;;;;;;;6.75;6.13;;;;;;;;;;5096304;28;20045;-87
2022/08/16 11:03:49;;;;;;;7.00;6.30;;;;;;;;;;5091000;28;20054;-84
2022/08/16 11:06:24;;;;;;;9.45;6.78;;;;;;;;;;5075929;28;20489;-85
2022/08/16 11:08:55;;;;;;;7.43;6.72;;;;;;;;;;5079039;28;20045;-84
2022/08/16 11:11:42;;;;;;;7.07;6.43;;;;;;;;;;5091451;28;20040;-83
2022/08/16 11:14:30;;;;;;;7.28;6.57;;;;;;;;;;5086570;28;20496;-84
2022/08/16 11:16:58;;;;;;;7.95;6.90;;;;;;;;;;5094862;28;20127;-82
2022/08/16 11:19:35;;;;;;;8.27;7.10;;;;;;;;;;5094863;28;20036;-85
2022/08/16 11:22:23;;;;;;;7.45;6.65;;;;;;;;;;5093530;28;20537;-84
2022/08/16 11:25:12;;;;;;;9.07;7.07;;;;;;;;;;5094198;28;20036;-84
2022/08/16 11:28:00;;;;;;;8.18;7.38;;;;;;;;;;5091857;28;20044;-85
2022/08/16 11:30:30;;;;;;;7.50;6.80;;;;;;;;;;5091190;28;20062;-84
2022/08/16 11:33:06;;;;;;;9.05;7.00;;;;;;;;;;5081039;28;20043;-83
2022/08/16 11:35:35;;;;;;;7.63;6.82;;;;;;;;;;5086126;28;20041;-84
2022/08/16 11:38:15;;;;;;;7.88;6.95;;;;;;;;;;5087482;28;20040;-85
2022/08/16 11:41:02;;;;;;;8.50;6.85;;;;;;;;;;5094232;28;20101;-84
2022/08/16 11:43:32;;;;;;;8.65;7.15;;;;;;;;;;5094147;28;20050;-85
2022/08/16 11:46:01;;;;;;;7.60;6.90;;;;;;;;;;5093972;28;20039;-85
2022/08/16 11:48:50;;;;;;;9.45;8.38;;;;;;;;;;5094223;28;20443;-84
2022/08/16 11:51:18;;;;;;;8.77;7.70;;;;;;;;;;5093281;28;20039;-85
2022/08/16 11:53:46;;;;;;;8.82;7.32;;;;;;;;;;5094021;28;20067;-82
2022/08/16 11:56:13;;;;;;;8.65;7.57;;;;;;;;;;5095008;28;20044;-83
2022/08/16 11:58:41;;;;;;;8.35;7.53;;;;;;;;;;5094522;28;20044;-85
2022/08/16 12:01:18;;;;;;;8.30;7.35;;;;;;;;;;5093234;28;20466;-83
2022/08/16 12:03:56;;;;;;;10.13;7.50;;;;;;;;;;5093709;28;20075;-82
2022/08/16 12:06:23;;;;;;;7.63;6.88;;;;;;;;;;5093907;28;20044;-84
2022/08/16 12:09:00;;;;;;;8.40;7.60;;;;;;;;;;5094083;28;20477;-84
2022/08/16 12:11:29;;;;;;;10.15;8.05;;;;;;;;;;5094016;28;20055;-82
2022/08/16 12:13:59;;;;;;;8.65;7.22;;;;;;;;;;5093885;28;20115;-82
2022/08/16 12:16:26;;;;;;;11.05;7.38;;;;;;;;;;5093867;28;20036;-83
2022/08/16 12:19:00;;;;;;;10.63;7.35;;;;;;;;;;5093674;28;20500;-83
2022/08/16 12:21:28;;;;;;;8.85;7.32;;;;;;;;;;5093606;28;20036;-83
2022/08/16 12:24:15;;;;;;;9.20;7.32;;;;;;;;;;5093930;28;20089;-82
2022/08/16 12:26:43;;;;;;;7.80;7.00;;;;;;;;;;5092586;28;20044;-83
2022/08/16 12:29:11;;;;;;;9.45;7.75;;;;;;;;;;5093478;28;20125;-84
2022/08/16 12:31:38;;;;;;;10.82;9.73;;;;;;;;;;5092963;28;20047;-82
2022/08/16 12:34:26;;;;;;;9.73;8.05;;;;;;;;;;5093551;28;20513;-83
2022/08/16 12:36:55;;;;;;;14.18;8.00;;;;;;;;;;5093685;28;20042;-83
2022/08/16 12:39:23;;;;;;;8.52;7.45;;;;;;;;;;5093145;28;20044;-83
2022/08/16 12:41:56;;;;;;;15.40;11.80;;;;;;;;;;5093136;28;20101;-82
2022/08/16 12:44:25;;;;;;;10.40;8.75;;;;;;;;;;5092402;28;20066;-83
2022/08/16 12:49:44;;;;;;;10.48;9.07;;;;;;;;;;5093239;28;20085;-83
2022/08/16 12:52:12;;;;;;;8.32;7.43;;;;;;;;;;5092099;28;20055;-86
2022/08/16 12:55:00;;;;;;;11.27;7.50;;;;;;;;;;5093348;28;20536;-86
2022/08/16 12:57:29;;;;;;;8.23;6.40;;;;;;;;;;5093336;28;20115;-84
2022/08/16 13:00:12;;;;;;;8.77;7.20;;;;;;;;;;5093073;28;20528;-83
2022/08/16 13:02:53;;;;;;;8.30;7.18;;;;;;;;;;5093373;28;20044;-82
2022/08/16 13:05:21;;;;;;;7.95;7.15;;;;;;;;;;5093026;28;20051;-84
2022/08/16 13:07:49;;;;;;;8.25;7.47;;;;;;;;;;5096532;28;20062;-83
2022/08/16 13:10:19;;;;;;;8.73;7.60;;;;;;;;;;5098533;28;20062;-84
2022/08/16 13:13:04;;;;;;;8.82;6.88;;;;;;;;;;5096114;28;20068;-84
2022/08/16 13:15:33;;;;;;;7.38;6.68;;;;;;;;;;5093287;28;20035;-83
2022/08/16 13:18:18;;;;;;;8.40;6.43;;;;;;;;;;5093000;28;20102;-84
2022/08/16 13:21:01;;;;;;;7.32;6.55;;;;;;;;;;5092774;28;20036;-83
2022/08/16 13:23:29;;;;;;;9.40;6.80;;;;;;;;;;5097483;28;20039;-82
2022/08/16 13:25:57;;;;;;;7.30;6.70;;;;;;;;;;5098022;28;20437;-83
2022/08/16 13:28:24;;;;;;;7.47;6.78;;;;;;;;;;5102191;28;20036;-83
2022/08/16 13:30:54;;;;;;;7.63;6.90;;;;;;;;;;5097158;28;20097;-83
2022/08/16 13:33:24;;;;;;;7.45;6.75;;;;;;;;;;5101100;28;20081;-83
2022/08/16 13:35:57;;;;;;;7.20;6.50;;;;;;;;;;5101741;28;20051;-83
2022/08/16 13:38:28;;;;;;;8.60;7.03;;;;;;;;;;5097461;28;20052;-83
2022/08/16 13:41:05;;;;;;;6.88;6.28;;;;;;;;;;5093100;28;20044;-79
2022/08/16 13:43:35;;;;;;;7.00;6.38;;;;;;;;;;5100727;28;20071;-81
2022/08/16 13:46:03;;;;;;;8.65;7.18;;;;;;;;;;5099945;28;20066;-80
2022/08/16 13:48:31;;;;;;;7.50;6.50;;;;;;;;;;5096526;28;20089;-80
2022/08/16 13:51:10;;;;;;;7.03;6.32;;;;;;;;;;5096354;28;20071;-81
2022/08/16 13:53:48;;;;;;;8.60;7.05;;;;;;;;;;5096440;28;20054;-81
2022/08/16 13:56:25;;;;;;;7.10;5.80;;;;;;;;;;5096455;28;20036;-81
2022/08/16 13:59:06;;;;;;;10.05;8.70;;;;;;;;;;5096319;28;20071;-81
2022/08/16 14:01:55;;;;;;;7.38;5.80;;;;;;;;;;5095065;28;20085;-78
2022/08/16 14:04:30;;;;;;;7.25;6.10;;;;;;;;;;5095997;28;20043;-77
2022/08/16 14:06:58;;;;;;;9.32;6.13;;;;;;;;;;5101304;28;20388;-76
2022/08/16 14:09:27;;;;;;;10.15;7.55;;;;;;;;;;5105236;28;20032;-76
2022/08/16 14:11:55;;;;;;;12.90;10.95;;;;;;;;;;5110767;28;20036;-76
2022/08/16 14:14:24;;;;;;;8.27;5.90;;;;;;;;;;5116531;28;20039;-75
2022/08/16 14:16:56;;;;;;;8.60;5.43;;;;;;;;;;5111108;28;20032;-73
2022/08/16 14:19:24;;;;;;;5.70;5.20;;;;;;;;;;5098229;28;20382;-73
2022/08/16 14:21:55;;;;;;;7.78;5.30;;;;;;;;;;5114870;27;20519;-74
2022/08/16 14:24:42;;;;;;;7.25;5.03;;;;;;;;;;5116259;28;20493;-73
2022/08/16 14:27:14;;;;;;;6.38;4.80;;;;;;;;;;5116287;28;20392;-74
2022/08/16 14:29:42;;;;;;;6.50;5.10;;;;;;;;;;5116514;28;20444;-74
2022/08/16 14:32:10;;;;;;;5.72;4.80;;;;;;;;;;5116084;28;20076;-74
2022/08/16 14:34:48;;;;;;;6.88;5.38;;;;;;;;;;5115926;28;20171;-74
2022/08/16 14:37:18;;;;;;;7.07;4.60;;;;;;;;;;5116075;27;20446;-74
2022/08/16 14:39:49;;;;;;;8.57;4.25;;;;;;;;;;5116084;28;20051;-74
2022/08/16 14:42:19;;;;;;;8.07;4.60;;;;;;;;;;5114256;28;20046;-74
2022/08/16 14:44:47;;;;;;;5.05;4.20;;;;;;;;;;5115278;28;20063;-74
2022/08/16 14:47:16;;;;;;;7.22;4.30;;;;;;;;;;5115393;27;20042;-74
2022/08/16 14:49:44;;;;;;;6.20;4.20;;;;;;;;;;5115103;28;20040;-74
2022/08/16 14:52:16;;;;;;;7.07;4.10;;;;;;;;;;5115590;28;20039;-74
2022/08/16 14:55:04;;;;;;;6.95;5.57;;;;;;;;;;5115513;28;20054;-74
2022/08/16 14:57:33;;;;;;;7.68;4.57;;;;;;;;;;5115107;28;20051;-72
2022/08/16 15:00:00;;;;;;;5.43;3.88;;;;;;;;;;5115566;28;20444;-74
2022/08/16 15:02:32;;;;;;;12.88;8.82;;;;;;;;;;5115572;28;20047;-74
2022/08/16 15:05:03;;;;;;;7.03;4.90;;;;;;;;;;5115505;28;20032;-75
2022/08/16 15:07:31;;;;;;;4.18;3.78;;;;;;;;;;5115461;28;20043;-74
2022/08/16 15:10:01;;;;;;;6.78;4.25;;;;;;;;;;5115355;28;20036;-74
2022/08/16 15:12:31;;;;;;;6.22;4.35;;;;;;;;;;5115445;28;20488;-75
2022/08/16 15:15:01;;;;;;;4.78;3.72;;;;;;;;;;5115277;28;20043;-74
2022/08/16 15:17:39;;;;;;;6.18;4.30;;;;;;;;;;5115379;28;20127;-74
2022/08/16 15:20:07;;;;;;;6.18;3.97;;;;;;;;;;5104634;28;20047;-75
2022/08/16 15:22:37;;;;;;;4.47;3.65;;;;;;;;;;5097262;28;20538;-74
2022/08/16 15:25:07;;;;;;;4.50;3.85;;;;;;;;;;5083483;28;20115;-74
2022/08/16 15:27:40;;;;;;;4.78;3.95;;;;;;;;;;5075470;28;20040;-73
2022/08/16 15:30:10;;;;;;;5.60;4.50;;;;;;;;;;5078593;28;20040;-74
2022/08/16 15:33:05;;;;;;;5.78;4.10;;;;;;;;;;5087087;28;20036;-74